Terminal Aerodrome Forecast
Issued by NWS

Home | Current Version | Previous Version | Graphics & Text | Print | Product List | Glossary On
Versions: 1 2 3 4 5 6 7 8 9 10 11 12 13
000
FTUS43 KBIS 260528
TAFMOT
TAF
KMOT 260528Z 2606/2706 23006KT P6SM SCT080 BKN100
     FM261700 22012KT P6SM BKN080 OVC120
     FM270000 18013KT P6SM SCT050 BKN070 OVC100=

USA.gov is the U.S. government's official web portal to all federal, state and local government web resources and services.